Relevés horaires Koksijde (Belgique)


Relevés horaires à Koksijde - Jeudi 18 Mai 2023
Heure UTC1 Température [°C] Vent [km/h] Hum. [%] Pres.4 [hPa] Visi. [Km] Nébu. [octa] Préc.5 [mm] Cond.
2m. Res. Ros. Dir.2 Vit. Moy. Raf.3
23:00 10.1 9.7 7.9 NE 5.6 -- 9.3 86 1027.2(-0.1/3h) 18 -- -- --
22:00 9.6 9.1 7.1 NNE 5.6 -- 11.1 84 1027.7(0.5/3h) 17 -- -- --
21:00 9.4 8.9 5.9 NNE 5.6 -- 14.8 79 1027.5(0.5/3h) 20 -- -- --
20:00 9.7 9.2 6.3 NNE 5.6 -- 13.0 79 1027.4(0.3/3h) 18 -- -- --
19:00 10.6 9.5 6.3 NNE 9.3 -- 14.8 75 1027.2(0.0/3h) 19 -- -- --
18:00 11.4 10.1 6.2 NNE 11.1 -- 16.7 70 1027(-0.3/3h) 20 -- -- NA
17:00 11.8 10.6 6.1 N 11.1 -- 16.7 68 1027(-0.7/3h) 14 -- -- --
16:00 12.3 11 6.1 N 13.0 -- 16.7 66 1027.2(-0.8/3h) 19 -- -- --
15:00 12.5 11.5 5.9 N 11.1 -- 16.7 64 1027.4(-0.6/3h) 19 -- -- NA
14:00 13.2 12.3 6.1 N 11.1 -- 16.7 62 1027.7(-0.6/3h) 15 -- -- --
13:00 12.9 11.9 6.1 N 11.1 -- 16.7 63 1028(-0.6/3h) 20 -- -- NA
12:00 12.8 11.8 5.8 N 11.1 -- 14.8 62 1028(-0.7/3h) 20 -- -- NA
11:00 13.1 12.4 5.8 N 9.3 -- 14.8 61 1028.5(-0.5/3h) 16 -- -- NA
10:00 12.6 11.8 5.5 N 9.3 -- 14.8 62 1028.7(0.1/3h) 20 -- -- --
09:00 12.0 11.9 3.8 ENE 5.6 -- 11.1 57 1028.9(0.2/3h) 20 -- -- NA
08:00 11.1 10.4 3.6 ENE 7.4 -- 11.1 60 1029(0.5/3h) 18 -- -- --
07:00 10.1 9.3 4.5 ENE 7.4 -- 9.3 68 1028.9(0.7/3h) 19 -- -- --
06:00 8.8 8.2 4.8 ENE 5.6 -- 7.4 76 1028.7(0.4/3h) 18 -- -- --
05:00 7.4 7.4 4.7 ENE 3.7 -- 7.4 83 1028.4(0.0/3h) 20 -- -- --
04:00 7.1 7.1 4.9 ENE 3.7 -- 7.4 86 1028(-0.1/3h) 20 -- -- --
03:00 7.5 7.5 5.5 NNO 1.9 -- 3.7 87 1028.2(-0.2/3h) 18 -- -- --
02:00 7.4 7.4 5.5 NNO 1.9 -- 3.7 88 1028.2(-0.3/3h) 18 -- -- --
01:00 7.8 7.8 5.4 NNO 1.9 -- 1.9 85 1028.2(-0.5/3h) 20 -- -- --
00:00 8.1 8.1 5.8 NNO 1.9 -- 13.0 85 1028.4(-0.5/3h) 19 -- -- --

1 Coordinated Universal Time. Actuellement il est 13:00 locale et 11:00 UTC.

2 Le vent souffle depuis la direction indiquée vers la direction oposée.

3 Les rafales max. sont disponible 40 min après l'heure du relevé.

4 Pour les stations d'altitude (plus de 600m) le géopotentiel du niveau le plus proche de la pression obligatoire est indiqué.

5 Les stations disposant d'un diffuseur peuvent indiquer "trace". Cela signifie que des précipitations ont touchés le sol mais que la quantité est inférieure à 0.1 mm.

Récapitulatif de la journée
Température [°C] Vent [km/h] Ensoleillement4 [h] Precipitations totale5 [mm] Pression [Hpa]
Min1 Max.2 Moy.3 Max. Min Max.
7.0 13.8 0 16.7 0 h 0 min 0 1027.0 1029.0

1 Température minimale relevée entre 18:00 UTC la veille et 18:00 UTC le jour donné.

2 Température maximale relevée entre 06:00 UTC le jour donné et 06:00 UTC le lendemain.

3 Vent moyen de la journée basé sur les relevés horaires.

4 Ensoleillement en heures relevé entre 06:00 UTC la veille et 06:00 UTC le jour donné.

5 Précipitations totales tombées entre 06:00 UTC la jour donné et 06:00 UTC le lendemain.

Graphiques horaires